ADDS METAR Data INFO
IDs: Format: Raw Decoded Include TAF

Data at: 2348 UTC 16 Oct 2017

KGTU 162256Z 36008KT 10SM CLR 23/04 A3026 RMK AO2 SLP244 T02330039
KGTU 162156Z 35010KT 10SM CLR 24/04 A3026 RMK AO2 SLP244 T02390044
KGTU 162056Z 02010KT 10SM CLR 24/05 A3027 RMK AO2 SLP247 T02390050 56035
KGTU 161956Z 36010KT 10SM CLR 23/06 A3029 RMK AO2 SLP256 T02330061
KGTU 161856Z 34011G15KT 10SM CLR 22/06 A3033 RMK AO2 SLP268 T02220061
KGTU 161756Z 35011G14KT 10SM CLR 21/07 A3037 RMK AO2 SLP284 T02060067 10211 20100 58013
KGTU 161656Z 01010KT 10SM CLR 19/07 A3040 RMK AO2 SLP293 T01940067
KGTU 161556Z 01010G15KT 10SM CLR 17/06 A3042 RMK AO2 SLP299 T01720061
KGTU 161456Z 02008KT 10SM CLR 16/06 A3041 RMK AO2 SLP298 T01560061 53015
KGTU 161356Z 36012KT 10SM CLR 13/06 A3040 RMK AO2 SLP293 T01330061
KGTU 161256Z 34008KT 10SM CLR 10/06 A3038 RMK AO2 SLP288 T01000056
KGTU 161156Z 34008KT 10SM CLR 11/06 A3037 RMK AO2 SLP284 T01060056 10150 20106 53010
KGTU 161056Z AUTO 34011KT 10SM CLR 12/06 A3035 RMK AO2 SLP276 T01170056
KGTU 160956Z AUTO 35009KT 10SM CLR 12/06 A3034 RMK AO2 SLP273 T01220056
KGTU 160856Z AUTO 35009KT 10SM CLR 13/05 A3034 RMK AO2 SLP270 T01330050 58001
KGTU 160756Z AUTO 35008KT 10SM CLR 13/05 A3034 RMK AO2 SLP271 T01330050
KGTU 160656Z AUTO 35007KT 10SM CLR 14/05 A3034 RMK AO2 SLP271 T01390050
KGTU 160556Z AUTO 36008KT 10SM CLR 15/05 A3034 RMK AO2 SLP271 T01500050 10217 20150 402500150 51008
KGTU 160456Z AUTO 36010KT 10SM CLR 16/05 A3033 RMK AO2 SLP268 T01610050
KGTU 160356Z AUTO 35008KT 10SM CLR 16/06 A3033 RMK AO2 SLP268 T01610061
KGTU 160256Z 35008KT 10SM CLR 17/07 A3032 RMK AO2 SLP263 T01720067 51020
KGTU 160156Z 35008KT 10SM CLR 19/07 A3030 RMK AO2 SLP257 T01890067
KGTU 160056Z 36012G17KT 10SM SCT110 21/07 A3028 RMK AO2 SLP250 T02060072
KGTU 152356Z 35010KT 10SM CLR 22/08 A3026 RMK AO2 SLP242 T02170078 10250 20217 53017
KGTU 152256Z 01011G22KT 10SM CLR 24/08 A3023 RMK AO2 SLP232 T02390078
KGTU 152156Z 35015G21KT 10SM CLR 24/11 A3020 RMK AO2 SLP221 T02440106
KGTU 152056Z 34015G20KT 10SM CLR 24/12 A3021 RMK AO2 SLP223 T02440122 56015
KGTU 151956Z 34016G23KT 10SM FEW032 24/13 A3021 RMK AO2 SLP225 T02440133
KGTU 151856Z 33012G20KT 10SM BKN030 23/14 A3024 RMK AO2 SLP234 T02330144
KGTU 151825Z 35014KT 320V020 10SM OVC030 24/15 A3025 RMK AO2
KGTU 151756Z 36012KT 10SM OVC028 23/16 A3025 RMK AO2 SLP238 T02280156 10233 20200 50010
KGTU 151656Z 01012G19KT 10SM OVC023 22/16 A3025 RMK AO2 SLP240 T02170156
KGTU 151556Z 36013G20KT 10SM OVC019 21/16 A3024 RMK AO2 SLP235 T02110156
KGTU 151509Z 01018G23KT 10SM OVC015 20/16 A3022 RMK AO2
KGTU 151456Z 36010G24KT 10SM OVC013 21/16 A3022 RMK AO2 PRESRR SLP227 T02060161 53034
KGTU 151356Z 34012KT 10SM BKN013 OVC040 21/18 A3018 RMK AO2 SLP215 T02110183
KGTU 151348Z 33014KT 10SM BKN013 OVC040 21/18 A3017 RMK AO2
KGTU 151256Z 33005KT 10SM BKN042 BKN050 OVC090 22/21 A3014 RMK AO2 SLP199 T02220211
KGTU 151156Z 29003KT 10SM CLR 22/21 A3011 RMK AO2 SLP190 T02170206 10250 20211 53024